createdAt,value
2018-11-26T00:07:36.195Z,3.40
2018-11-26T00:17:45.209Z,3.40
2018-11-26T00:27:53.433Z,3.40
2018-11-26T00:32:57.621Z,3.50
2018-11-26T00:48:09.814Z,3.60
2018-11-26T00:53:13.909Z,3.60
2018-11-26T00:58:18.034Z,3.60
2018-11-26T01:03:22.146Z,3.60
2018-11-26T01:08:26.274Z,3.60
2018-11-26T01:13:30.418Z,3.70
2018-11-26T01:28:42.110Z,3.70
2018-11-26T01:33:46.219Z,3.70
2018-11-26T01:38:50.380Z,3.70
2018-11-26T01:43:54.514Z,3.70
2018-11-26T01:48:58.654Z,3.80
2018-11-26T01:59:06.589Z,3.80
2018-11-26T02:04:10.695Z,3.80
2018-11-26T02:09:14.817Z,3.80
2018-11-26T02:14:18.945Z,3.80
2018-11-26T02:19:23.053Z,3.90
2018-11-26T02:24:27.173Z,3.90
2018-11-26T02:29:31.411Z,4.00
2018-11-26T02:34:35.545Z,4.00
2018-11-26T02:39:39.730Z,4.00
2018-11-26T02:44:43.867Z,4.00
2018-11-26T02:49:48.019Z,4.00
2018-11-26T02:54:52.405Z,4.10
2018-11-26T02:59:56.287Z,4.10
2018-11-26T03:05:00.402Z,4.00
2018-11-26T03:10:05.031Z,4.10
2018-11-26T03:15:10.821Z,4.10
2018-11-26T03:20:15.012Z,4.10
2018-11-26T03:25:19.123Z,4.10
2018-11-26T03:30:23.489Z,4.10
2018-11-26T03:40:31.387Z,4.10
2018-11-26T03:45:35.496Z,4.10
2018-11-26T03:50:39.684Z,4.20
2018-11-26T03:55:43.840Z,4.20
2018-11-26T04:10:59.727Z,4.20
2018-11-26T04:16:03.893Z,4.20
2018-11-26T04:21:08.053Z,4.20
2018-11-26T04:26:12.344Z,4.20
2018-11-26T04:31:16.474Z,4.20
2018-11-26T04:41:24.342Z,4.20
2018-11-26T04:46:28.470Z,4.20
2018-11-26T04:51:32.628Z,4.20
2018-11-26T04:56:36.737Z,4.20
2018-11-26T05:01:40.896Z,4.30
2018-11-26T05:11:50.844Z,4.20
2018-11-26T05:16:55.246Z,4.30
2018-11-26T05:21:59.761Z,4.30
2018-11-26T05:27:04.247Z,4.30
2018-11-26T05:32:08.763Z,4.30
2018-11-26T05:37:13.318Z,4.30
2018-11-26T05:42:17.920Z,4.30
2018-11-26T06:02:34.829Z,4.20
2018-11-26T06:07:39.257Z,4.20
2018-11-26T06:12:43.675Z,4.20
2018-11-26T06:17:48.157Z,4.20
2018-11-26T06:22:52.664Z,4.20
2018-11-26T06:27:57.132Z,4.20
2018-11-26T06:53:17.493Z,4.30
2018-11-26T07:08:29.793Z,4.40
2018-11-26T07:49:01.032Z,4.30
2018-11-26T08:04:12.678Z,4.30
2018-11-26T08:09:16.800Z,4.40
2018-11-26T08:19:24.670Z,4.40
2018-11-26T08:24:28.774Z,4.60
2018-11-26T08:29:32.879Z,4.60
2018-11-26T08:34:37.019Z,4.60
2018-11-26T08:39:46.512Z,4.60
2018-11-26T08:45:00.830Z,4.60
2018-11-26T08:50:05.012Z,4.60
2018-11-26T09:05:24.279Z,4.60
2018-11-26T09:25:38.027Z,4.60
2018-11-26T09:30:42.254Z,4.60
2018-11-26T09:35:46.392Z,4.50
2018-11-26T09:40:50.601Z,4.50
2018-11-26T09:45:54.731Z,4.50
2018-11-26T09:50:58.961Z,4.60
2018-11-26T09:56:03.139Z,4.60
2018-11-26T10:06:11.024Z,4.60
2018-11-26T10:11:15.147Z,4.50
2018-11-26T10:16:19.278Z,4.60
2018-11-26T10:21:23.403Z,4.50
2018-11-26T10:36:35.122Z,4.50
2018-11-26T10:46:43.069Z,4.40
2018-11-26T10:51:47.184Z,4.40
2018-11-26T10:56:51.330Z,4.50
2018-11-26T11:07:04.501Z,4.50
2018-11-26T11:17:12.362Z,4.50
2018-11-26T11:22:16.514Z,4.50
2018-11-26T11:32:24.372Z,4.40
2018-11-26T11:37:28.475Z,4.50
2018-11-26T11:42:32.593Z,4.50
2018-11-26T12:07:51.817Z,4.50
2018-11-26T12:12:55.941Z,4.50
2018-11-26T12:28:07.511Z,4.50
2018-11-26T12:33:11.643Z,4.50
2018-11-26T12:38:15.778Z,4.40
2018-11-26T12:43:19.892Z,4.40
2018-11-26T12:48:24.036Z,4.40
2018-11-26T12:53:28.148Z,4.40
2018-11-26T12:58:32.276Z,4.40
2018-11-26T13:03:36.376Z,4.40
2018-11-26T13:13:44.263Z,4.40
2018-11-26T13:18:48.417Z,4.40
2018-11-26T13:23:52.554Z,4.40
2018-11-26T13:28:56.670Z,4.40
2018-11-26T13:34:00.836Z,4.40
2018-11-26T13:39:08.481Z,4.40
2018-11-26T13:44:12.646Z,4.30
2018-11-26T13:49:16.772Z,4.40
2018-11-26T13:54:20.882Z,4.30
2018-11-26T13:59:24.995Z,4.30
2018-11-26T14:04:29.150Z,4.30
2018-11-26T14:09:33.256Z,4.30
2018-11-26T14:14:37.364Z,4.30
2018-11-26T14:24:45.192Z,4.30
2018-11-26T14:29:49.320Z,4.20
2018-11-26T14:34:53.436Z,4.20
2018-11-26T14:39:57.541Z,4.20
2018-11-26T14:55:14.915Z,4.10
2018-11-26T15:20:34.913Z,3.90
2018-11-26T15:40:51.533Z,3.80
2018-11-26T15:45:55.686Z,3.70
2018-11-26T16:46:41.341Z,3.70
2018-11-26T16:51:45.526Z,3.70
2018-11-26T17:01:53.799Z,3.70
2018-11-26T17:57:37.395Z,3.50
2018-11-26T18:17:54.370Z,3.40
2018-11-26T18:22:58.686Z,3.40
2018-11-26T18:28:05.656Z,3.50
2018-11-26T18:43:24.060Z,3.40
2018-11-26T18:48:28.281Z,3.40
2018-11-26T19:13:58.158Z,3.20
2018-11-26T19:29:10.171Z,3.10
2018-11-26T19:34:14.346Z,3.00
2018-11-26T20:35:06.958Z,2.60
2018-11-26T21:10:37.374Z,2.60
2018-11-26T21:25:51.959Z,2.40
2018-11-26T21:46:10.491Z,2.10
2018-11-26T21:51:15.109Z,2.00
2018-11-26T23:12:25.777Z,2.30
2018-11-26T23:27:38.052Z,2.40
2018-11-26T23:32:42.249Z,2.40
2018-11-26T23:37:46.448Z,2.40
2018-11-26T23:47:54.714Z,2.50
2018-11-26T23:58:02.631Z,2.50
